Hill Air Force Base Ogden US
ICAO: KHIF
IATA: HIF
Category: Medium
Scheduled Services: No

Elevation: 4789 ft
TransAlt. 18000 ft.

Airport Communications:
SALT LAKE CITY APP:25.787
SALT LAKE CITY APP:31.925
SALT LAKE CITY APP:121.1
ATIS:134.925
CLNC DEL:124.1
SALT LAKE CITY DEP:121.1
GND:121.6
419 OPS:25.21
PMSV METRO:34.23
COMD POST:38.13
PTD:139.3
TWR:127.15

KHIF Zoom In..

Runways:

(A) RW 14 length 13508 ft width 200 ft
ILS 109.90 / hdg 139

(B) RW 32 length 13508 ft width 200 ft
---- / hdg 319

Location; KHIF
Day. 22 / Time. 03.58 Zulu
* Altimeter: 30.26
* Temperature: -05° c. -23°f.
* Wind from: 110° Speed 10 kn.
Dewpoint: -09° c.
Visibility: 10 Statute Miles.
Clouds: Clear (automated report).

KHIF 220358Z AUTO 11010KT 10SM CLR M05/M09 A3026 RMK AO2 SLP281 T10501086


Wind From 110°
Speed 10 kn.

jpsM music video
CHECK IT OUT

jpsM - It Moves..

 
jpsmedia.com for Web Design  worldairports.se 2018   terms of use